Land O' Lakes, WI

4:23 AM CDT on October 20, 2014 (GMT -0500)
Downtown Three Lakes | Change Station
CLOSE
Current Station
Personal Weather Station
Location: THREE LAKES, WI
Elevation: 1658 ft
Nearby Weather Stations

Elev 1658 ft 45.80 °N, 89.18 °W | Updated 3 minutes ago

Overcast
Overcast
40.8 °F
Feels Like 41 °F
N
0.0
Wind Variable Wind from SW
Gusts 0.0 mph

Today
High -- | Low -- °F
--% Chance of Precip.
Yesterday
High -- | Low -- °F
Precip. -- in
7:20 AM 6:01 PM
Waning Crescent, 12% visible
Pressure 29.80 in
Visibility 10.0 miles
Clouds Scattered Clouds 1100 ft
Overcast 1700 ft
Windchill 41 °F
Dew Point 38 °F
Humidity 90%
Rainfall -999.00 in
Snow Depth Not available.
UV 0 out of 12
Pollen .20 out of 12
Air Quality Not available.
Flu Activity Sporadic
METAR KLNL 200915Z AUTO 34005KT 10SM SCT011 OVC017 08/06 A2980 RMK AO2 T00780056

More Conditions Fewer Conditions

Pressure 29.80 in
Visibility 10.0 miles
Clouds Scattered Clouds 1100 ft
Overcast 1700 ft
Windchill 41 °F
Dew Point 38 °F
Humidity 90%
Rainfall -999.00 in
Snow Depth Not available.
UV 0 out of 12
Pollen .20 out of 12
Air Quality Not available.
Flu Activity Sporadic
METAR KLNL 200915Z AUTO 34005KT 10SM SCT011 OVC017 08/06 A2980 RMK AO2 T00780056

More Conditions Fewer Conditions

10-Day Weather Forecast

Almanac

Astronomy

Oct. 20, 2014 Rise Set
Actual Time 7:20 AM CDT 6:01 PM CDT
Civil Twilight 6:50 AM CDT 6:32 PM CDT
Nautical Twilight 6:15 AM CDT 7:06 PM CDT
Astronomical Twilight 5:40 AM CDT 7:41 PM CDT
Moon 3:58 AM CDT 4:33 PM CDT
Length of Visible Light 11h 41m
Length of Day
10h 40m
Waning Crescent, 12% of the Moon is Illuminated
Today
Waning Crescent
Oct 23
New
Oct 30
First Quarter
Nov 6
Full
Nov 14
Last Quarter

Today's Extremes

State Highs State Lows

Community

WunderPhotos

Upload Photos

1,763,325 photos uploaded!

Nearby

Snow Depth

Station Depth Elevation
No new snow has been reported.

Earthquake Activity

City Distance Mag. Time & Date
No recent earthquake activity has been reported nearby.
Minimum magnitude displayed is 2.5.

Coastal Water Temperatures

Place Temperature
No Stations Reporting

Nearby Weather Stations